createdAt,value
2019-05-14T00:02:07.053Z,24.92
2019-05-14T00:04:38.897Z,23.13
2019-05-14T00:07:11.557Z,23.87
2019-05-14T00:09:44.455Z,23.52
2019-05-14T00:12:16.160Z,23.50
2019-05-14T00:14:48.180Z,23.67
2019-05-14T00:17:21.436Z,21.40
2019-05-14T00:20:06.500Z,20.92
2019-05-14T00:22:26.834Z,22.85
2019-05-14T00:25:01.042Z,20.90
2019-05-14T00:27:32.349Z,21.52
2019-05-14T00:30:06.307Z,20.80
2019-05-14T00:32:37.964Z,21.37
2019-05-14T00:35:11.083Z,22.75
2019-05-14T00:37:44.227Z,23.95
2019-05-14T00:42:47.306Z,23.15
2019-05-14T00:45:18.833Z,22.67
2019-05-14T00:47:52.492Z,23.38
2019-05-14T00:50:25.286Z,21.27
2019-05-14T00:52:57.296Z,24.20
2019-05-14T00:55:28.991Z,23.92
2019-05-14T00:58:02.418Z,24.43
2019-05-14T01:00:34.273Z,22.93
2019-05-14T01:03:05.951Z,24.70
2019-05-14T01:05:37.901Z,23.77
2019-05-14T01:08:12.055Z,24.00
2019-05-14T01:10:43.546Z,25.37
2019-05-14T01:13:15.507Z,25.68
2019-05-14T01:15:47.403Z,27.10
2019-05-14T01:18:19.244Z,28.10
2019-05-14T01:23:23.703Z,27.67
2019-05-14T01:25:56.315Z,29.00
2019-05-14T01:28:28.073Z,28.92
2019-05-14T01:31:01.140Z,31.17
2019-05-14T01:33:34.004Z,30.27
2019-05-14T01:36:05.871Z,32.70
2019-05-14T01:38:37.812Z,35.40
2019-05-14T01:41:11.833Z,35.38
2019-05-14T01:43:43.020Z,35.75
2019-05-14T01:46:15.257Z,36.40
2019-05-14T01:51:22.186Z,36.47
2019-05-14T01:53:53.597Z,36.63
2019-05-14T01:56:25.480Z,35.03
2019-05-14T01:58:57.166Z,34.88
2019-05-14T02:01:31.341Z,34.23
2019-05-14T02:04:02.618Z,32.78
2019-05-14T02:06:34.363Z,33.08
2019-05-14T02:09:07.501Z,32.15
2019-05-14T02:11:41.296Z,32.25
2019-05-14T02:14:12.649Z,31.45
2019-05-14T02:16:44.525Z,30.70
2019-05-14T02:19:16.211Z,30.95
2019-05-14T02:21:48.060Z,28.65
2019-05-14T02:24:21.807Z,27.20
2019-05-14T02:26:53.555Z,26.95
2019-05-14T02:29:25.663Z,25.95
2019-05-14T02:31:58.983Z,22.95
2019-05-14T02:34:30.965Z,21.20
2019-05-14T02:37:02.849Z,19.60
2019-05-14T02:39:34.842Z,17.82
2019-05-14T02:42:09.538Z,15.50
2019-05-14T02:44:41.136Z,15.15
2019-05-14T02:47:13.002Z,13.75
2019-05-14T02:49:44.894Z,13.22
2019-05-14T02:52:20.091Z,13.55
2019-05-14T02:54:50.657Z,11.63
2019-05-14T02:57:22.424Z,11.30
2019-05-14T02:59:54.648Z,10.70
2019-05-14T03:02:29.463Z,10.85
2019-05-14T03:04:59.988Z,10.32
2019-05-14T03:07:31.568Z,11.20
2019-05-14T03:10:03.940Z,16.57
2019-05-14T03:15:10.131Z,11.43
2019-05-14T03:17:41.822Z,8.93
2019-05-14T03:20:13.689Z,8.68
2019-05-14T03:23:01.466Z,7.85
2019-05-14T03:25:19.827Z,9.35
2019-05-14T03:27:51.789Z,8.38
2019-05-14T03:30:23.701Z,9.73
2019-05-14T03:32:55.562Z,7.67
2019-05-14T03:35:40.072Z,8.08
2019-05-14T03:38:00.727Z,9.50
2019-05-14T03:40:32.419Z,7.55
2019-05-14T03:43:04.282Z,7.00
2019-05-14T03:45:38.915Z,7.42
2019-05-14T03:48:10.405Z,7.05
2019-05-14T03:50:42.075Z,7.28
2019-05-14T03:53:15.064Z,7.28
2019-05-14T03:55:49.930Z,7.30
2019-05-14T03:58:21.518Z,7.85
2019-05-14T04:00:59.847Z,6.22
2019-05-14T04:03:31.964Z,6.10
2019-05-14T04:06:04.191Z,6.15
2019-05-14T04:08:39.174Z,6.62
2019-05-14T04:11:11.476Z,6.90
2019-05-14T04:13:49.437Z,6.05
2019-05-14T04:16:22.190Z,5.92
2019-05-14T04:18:54.860Z,6.42
2019-05-14T04:21:29.806Z,5.78
2019-05-14T04:24:03.885Z,5.70
2019-05-14T04:26:53.094Z,11.10
2019-05-14T04:29:13.829Z,5.33
2019-05-14T04:31:50.341Z,5.28
2019-05-14T04:34:23.244Z,5.97
2019-05-14T04:36:54.983Z,15.03
2019-05-14T04:39:30.418Z,5.33
2019-05-14T04:42:00.405Z,5.08
2019-05-14T04:44:32.060Z,5.60
2019-05-14T04:47:21.460Z,5.58
2019-05-14T04:49:39.869Z,5.50
2019-05-14T04:52:10.484Z,5.03
2019-05-14T04:54:41.980Z,4.55
2019-05-14T04:57:13.913Z,4.47
2019-05-14T04:59:49.127Z,5.03
2019-05-14T05:02:20.078Z,5.17
2019-05-14T05:04:52.017Z,4.53
2019-05-14T05:07:23.780Z,4.80
2019-05-14T05:09:55.462Z,4.87
2019-05-14T05:12:29.620Z,4.58
2019-05-14T05:15:00.567Z,4.83
2019-05-14T05:17:44.321Z,4.75
2019-05-14T05:20:09.873Z,4.83
2019-05-14T05:22:40.666Z,4.10
2019-05-14T05:25:12.738Z,4.58
2019-05-14T05:27:44.473Z,5.12
2019-05-14T05:30:16.193Z,5.30
2019-05-14T05:32:49.406Z,4.75
2019-05-14T05:35:21.397Z,5.33
2019-05-14T05:37:53.352Z,4.37
2019-05-14T05:40:24.857Z,4.85
2019-05-14T05:42:58.101Z,5.05
2019-05-14T05:45:29.856Z,4.85
2019-05-14T05:48:02.017Z,4.83
2019-05-14T05:50:33.625Z,5.05
2019-05-14T05:53:05.276Z,5.90
2019-05-14T05:55:39.265Z,6.42
2019-05-14T05:58:10.478Z,4.97
2019-05-14T06:00:43.838Z,5.83
2019-05-14T06:03:15.548Z,6.58
2019-05-14T06:05:50.416Z,5.33
2019-05-14T06:08:22.370Z,7.37
2019-05-14T06:10:54.399Z,5.03
2019-05-14T06:13:28.697Z,8.50
2019-05-14T06:16:00.772Z,4.85
2019-05-14T06:18:34.991Z,8.98
2019-05-14T06:21:08.944Z,9.70
2019-05-14T06:23:39.972Z,4.72
2019-05-14T06:26:11.970Z,8.10
2019-05-14T06:28:44.012Z,5.12
2019-05-14T06:31:15.647Z,4.95
2019-05-14T06:33:48.629Z,5.22
2019-05-14T06:36:21.005Z,7.42
2019-05-14T06:38:54.704Z,4.90
2019-05-14T06:41:28.363Z,8.23
2019-05-14T06:43:59.787Z,5.85
2019-05-14T06:46:31.794Z,6.50
2019-05-14T06:49:04.980Z,4.80
2019-05-14T06:51:39.323Z,5.03
2019-05-14T06:54:10.162Z,6.30
2019-05-14T06:56:42.222Z,6.80
2019-05-14T06:59:18.012Z,6.83
2019-05-14T07:01:49.129Z,7.72
2019-05-14T07:04:21.301Z,6.55
2019-05-14T07:06:53.191Z,5.33
2019-05-14T07:09:25.486Z,11.93
2019-05-14T07:11:58.507Z,6.00
2019-05-14T07:14:30.511Z,6.15
2019-05-14T07:17:02.301Z,7.95
2019-05-14T07:19:33.969Z,10.45
2019-05-14T07:22:08.724Z,8.53
2019-05-14T07:24:40.674Z,12.60
2019-05-14T07:27:12.816Z,7.75
2019-05-14T07:29:44.793Z,5.42
2019-05-14T07:32:19.117Z,7.62
2019-05-14T07:34:52.296Z,5.45
2019-05-14T07:37:24.369Z,8.98
2019-05-14T07:39:58.018Z,6.28
2019-05-14T07:42:30.677Z,10.23
2019-05-14T07:45:02.439Z,6.12
2019-05-14T07:47:34.211Z,6.30
2019-05-14T07:50:47.721Z,5.00
2019-05-14T07:53:18.023Z,9.83
2019-05-14T07:55:49.609Z,6.97
2019-05-14T07:58:21.711Z,12.82
2019-05-14T08:01:43.692Z,8.63
2019-05-14T08:04:17.869Z,7.80
2019-05-14T08:06:49.098Z,13.43
2019-05-14T08:09:21.000Z,6.83
2019-05-14T08:11:53.083Z,7.20
2019-05-14T08:14:24.689Z,5.92
2019-05-14T08:16:59.320Z,15.35
2019-05-14T08:19:32.639Z,9.73
2019-05-14T08:22:03.970Z,6.53
2019-05-14T08:24:35.548Z,5.95
2019-05-14T08:27:08.562Z,7.58
2019-05-14T08:29:40.288Z,14.87
2019-05-14T08:32:12.190Z,10.50
2019-05-14T08:34:44.177Z,12.00
2019-05-14T08:39:48.697Z,7.85
2019-05-14T08:42:20.162Z,7.90
2019-05-14T08:44:52.135Z,14.50
2019-05-14T08:49:55.168Z,9.68
2019-05-14T08:52:28.835Z,7.10
2019-05-14T08:55:10.172Z,11.08
2019-05-14T08:57:35.397Z,7.55
2019-05-14T09:00:13.742Z,7.67
2019-05-14T09:02:41.204Z,8.58
2019-05-14T09:05:13.045Z,12.65
2019-05-14T09:07:44.647Z,10.82
2019-05-14T09:10:19.063Z,10.08
2019-05-14T09:12:49.723Z,9.35
2019-05-14T09:15:21.924Z,8.75
2019-05-14T09:17:53.467Z,9.85
2019-05-14T09:20:25.505Z,8.70
2019-05-14T09:22:59.503Z,8.95
2019-05-14T09:25:30.784Z,8.85
2019-05-14T09:28:02.654Z,8.10
2019-05-14T09:30:34.568Z,8.93
2019-05-14T09:33:08.652Z,9.18
2019-05-14T09:35:39.772Z,7.40
2019-05-14T09:40:42.809Z,8.68
2019-05-14T09:43:14.367Z,11.70
2019-05-14T09:45:48.019Z,7.83
2019-05-14T09:48:19.319Z,7.35
2019-05-14T09:50:51.425Z,7.10
2019-05-14T09:55:54.246Z,7.33
2019-05-14T09:58:28.184Z,6.95
2019-05-14T10:00:59.765Z,6.10
2019-05-14T10:03:34.595Z,7.50
2019-05-14T10:06:09.460Z,5.60
2019-05-14T10:08:39.419Z,7.47
2019-05-14T10:13:42.380Z,5.47
2019-05-14T10:16:18.895Z,6.30
2019-05-14T10:18:52.736Z,7.70
2019-05-14T10:21:23.985Z,5.83
2019-05-14T10:23:55.666Z,6.30
2019-05-14T10:26:28.853Z,6.05
2019-05-14T10:29:01.074Z,7.10
2019-05-14T10:31:32.935Z,5.92
2019-05-14T10:34:04.682Z,5.20
2019-05-14T10:36:36.302Z,5.72
2019-05-14T10:41:41.104Z,4.95
2019-05-14T10:44:12.654Z,5.15
2019-05-14T10:46:44.315Z,4.90
2019-05-14T10:54:25.208Z,7.50
2019-05-14T10:56:54.292Z,5.37
2019-05-14T10:59:26.268Z,4.87
2019-05-14T11:01:58.031Z,5.70
2019-05-14T11:04:29.622Z,4.87
2019-05-14T11:07:02.383Z,4.70
2019-05-14T11:09:34.279Z,5.70
2019-05-14T11:12:06.021Z,6.12
2019-05-14T11:14:38.679Z,6.45
2019-05-14T11:17:11.916Z,7.08
2019-05-14T11:19:43.596Z,6.47
2019-05-14T11:22:18.246Z,5.35
2019-05-14T11:24:49.249Z,4.95
2019-05-14T11:27:21.425Z,5.00
2019-05-14T11:29:53.288Z,11.83
2019-05-14T11:34:55.943Z,5.75
2019-05-14T11:37:28.220Z,5.42
2019-05-14T11:40:00.579Z,6.08
2019-05-14T11:42:32.425Z,5.50
2019-05-14T11:45:05.277Z,5.85
2019-05-14T11:47:38.051Z,4.78
2019-05-14T11:50:11.127Z,5.78
2019-05-14T11:52:43.204Z,5.20
2019-05-14T11:57:45.826Z,7.30
2019-05-14T12:00:19.534Z,5.55
2019-05-14T12:02:51.699Z,6.62
2019-05-14T12:07:54.205Z,7.20
2019-05-14T12:10:29.111Z,6.33
2019-05-14T12:13:00.149Z,5.47
2019-05-14T12:15:31.712Z,5.50
2019-05-14T12:18:03.402Z,5.20
2019-05-14T12:20:34.993Z,4.80
2019-05-14T12:23:08.866Z,5.47
2019-05-14T12:25:40.181Z,6.08
2019-05-14T12:28:13.549Z,5.35
2019-05-14T12:30:45.408Z,5.60
2019-05-14T12:33:19.828Z,5.10
2019-05-14T12:35:51.413Z,5.60
2019-05-14T12:38:23.415Z,6.65
2019-05-14T12:40:55.259Z,4.90
2019-05-14T12:43:28.253Z,7.58
2019-05-14T12:46:00.256Z,5.10
2019-05-14T12:48:32.065Z,4.80
2019-05-14T12:51:03.580Z,5.78
2019-05-14T12:53:35.317Z,4.97
2019-05-14T12:56:08.596Z,5.00
2019-05-14T12:58:45.443Z,5.90
2019-05-14T13:01:14.814Z,5.70
2019-05-14T13:03:48.486Z,5.22
2019-05-14T13:06:19.842Z,4.50
2019-05-14T13:08:51.619Z,5.65
2019-05-14T13:13:54.089Z,4.42
2019-05-14T13:16:25.584Z,4.90
2019-05-14T13:18:59.738Z,5.47
2019-05-14T13:21:30.496Z,5.83
2019-05-14T13:24:02.135Z,4.97
2019-05-14T13:26:33.907Z,4.37
2019-05-14T13:29:08.184Z,4.45
2019-05-14T13:31:39.092Z,4.12
2019-05-14T13:34:10.826Z,4.53
2019-05-14T13:36:44.918Z,4.55
2019-05-14T13:39:19.213Z,5.15
2019-05-14T13:41:49.806Z,5.28
2019-05-14T13:44:24.990Z,4.60
2019-05-14T13:46:54.903Z,5.08
2019-05-14T13:49:29.236Z,3.70
2019-05-14T13:51:59.798Z,4.40
2019-05-14T13:54:31.999Z,5.10
2019-05-14T13:57:03.504Z,4.90
2019-05-14T13:59:35.136Z,4.22
2019-05-14T14:04:39.495Z,4.28
2019-05-14T14:07:11.574Z,4.12
2019-05-14T14:09:43.511Z,4.20
2019-05-14T14:12:15.170Z,4.33
2019-05-14T14:14:49.377Z,3.70
2019-05-14T14:17:20.266Z,3.55
2019-05-14T14:19:51.940Z,3.60
2019-05-14T14:22:23.441Z,4.35
2019-05-14T14:24:55.404Z,4.03
2019-05-14T14:27:29.952Z,6.22
2019-05-14T14:30:00.329Z,7.03
2019-05-14T14:32:32.252Z,6.20
2019-05-14T14:35:04.080Z,6.33
2019-05-14T14:37:35.853Z,3.85
2019-05-14T14:40:09.926Z,4.25
2019-05-14T14:42:41.394Z,4.10
2019-05-14T14:45:13.629Z,4.50
2019-05-14T14:50:19.195Z,3.35
2019-05-14T14:52:49.796Z,4.17
2019-05-14T14:55:21.806Z,3.62
2019-05-14T14:57:55.229Z,4.25
2019-05-14T15:00:29.371Z,8.80
2019-05-14T15:03:00.687Z,3.72
2019-05-14T15:05:32.687Z,3.52
2019-05-14T15:08:04.506Z,3.80
2019-05-14T15:10:36.048Z,5.25
2019-05-14T15:13:09.305Z,3.85
2019-05-14T15:15:40.967Z,3.42
2019-05-14T15:18:14.144Z,5.03
2019-05-14T15:20:48.675Z,5.30
2019-05-14T15:23:19.546Z,4.78
2019-05-14T15:25:52.851Z,4.00
2019-05-14T15:28:24.610Z,4.20
2019-05-14T15:30:56.009Z,4.30
2019-05-14T15:33:29.420Z,4.55
2019-05-14T15:36:01.515Z,4.17
2019-05-14T15:38:33.190Z,3.98
2019-05-14T15:41:04.657Z,5.55
2019-05-14T15:43:39.255Z,6.72
2019-05-14T15:46:09.887Z,6.97
2019-05-14T15:48:41.574Z,4.70
2019-05-14T15:51:15.065Z,4.42
2019-05-14T15:54:05.521Z,4.55
2019-05-14T15:56:19.679Z,4.80
2019-05-14T15:58:51.467Z,9.43
2019-05-14T16:01:23.289Z,5.08
2019-05-14T16:03:55.051Z,6.50
2019-05-14T16:06:26.807Z,5.47
2019-05-14T16:08:59.085Z,7.00
2019-05-14T16:11:31.074Z,6.00
2019-05-14T16:14:03.002Z,7.92
2019-05-14T16:16:34.593Z,6.95
2019-05-14T16:19:08.230Z,5.50
2019-05-14T16:21:39.934Z,6.97
2019-05-14T16:24:11.674Z,7.62
2019-05-14T16:26:43.339Z,11.60
2019-05-14T16:29:15.192Z,13.32
2019-05-14T16:31:48.717Z,7.70
2019-05-14T16:34:20.580Z,11.08
2019-05-14T16:36:53.034Z,8.50
2019-05-14T16:39:24.695Z,6.70
2019-05-14T16:41:58.297Z,9.88
2019-05-14T16:44:30.060Z,15.10
2019-05-14T16:47:01.692Z,16.87
2019-05-14T16:49:34.200Z,7.92
2019-05-14T16:52:08.865Z,11.80
2019-05-14T16:54:40.007Z,15.72
2019-05-14T16:57:12.009Z,9.25
2019-05-14T16:59:43.879Z,7.15
2019-05-14T17:02:15.432Z,6.28
2019-05-14T17:04:48.323Z,5.97
2019-05-14T17:07:20.135Z,5.25
2019-05-14T17:09:52.030Z,6.47
2019-05-14T17:12:23.781Z,5.60
2019-05-14T17:14:58.543Z,5.90
2019-05-14T17:17:28.792Z,5.65
2019-05-14T17:20:00.874Z,6.83
2019-05-14T17:22:33.914Z,7.60
2019-05-14T17:25:09.050Z,6.37
2019-05-14T17:27:39.945Z,6.45
2019-05-14T17:30:12.054Z,6.83
2019-05-14T17:32:43.719Z,6.12
2019-05-14T17:35:15.288Z,7.80
2019-05-14T17:37:48.338Z,8.50
2019-05-14T17:40:21.040Z,8.88
2019-05-14T17:42:52.692Z,7.12
2019-05-14T17:45:24.466Z,13.93
2019-05-14T17:47:58.312Z,5.42
2019-05-14T17:50:29.706Z,15.80
2019-05-14T17:55:46.417Z,6.05
2019-05-14T17:58:12.823Z,5.92
2019-05-14T18:00:39.575Z,5.97
2019-05-14T18:03:11.737Z,6.15
2019-05-14T18:08:14.938Z,6.20
2019-05-14T18:10:46.470Z,5.10
2019-05-14T18:13:18.660Z,8.30
2019-05-14T18:15:50.488Z,10.65
2019-05-14T18:18:22.597Z,8.68
2019-05-14T18:20:54.195Z,5.55
2019-05-14T18:23:26.097Z,6.45
2019-05-14T18:26:05.025Z,6.75
2019-05-14T18:28:31.306Z,9.45
2019-05-14T18:31:03.641Z,6.10
2019-05-14T18:33:35.797Z,6.03
2019-05-14T18:36:08.545Z,10.55
2019-05-14T18:38:41.214Z,7.92
2019-05-14T18:41:12.716Z,6.78
2019-05-14T18:43:45.095Z,9.63
2019-05-14T18:46:19.264Z,15.00
2019-05-14T18:48:50.825Z,7.30
2019-05-14T18:51:22.450Z,9.30
2019-05-14T18:53:54.854Z,7.17
2019-05-14T18:58:57.465Z,7.03
2019-05-14T19:01:29.280Z,9.23
2019-05-14T19:04:01.062Z,6.87
2019-05-14T19:06:32.948Z,13.40
2019-05-14T19:11:38.692Z,9.58
2019-05-14T19:14:10.885Z,7.75
2019-05-14T19:16:43.817Z,10.48
2019-05-14T19:19:15.745Z,7.62
2019-05-14T19:21:48.821Z,10.28
2019-05-14T19:24:20.505Z,8.73
2019-05-14T19:26:53.241Z,8.03
2019-05-14T19:29:25.260Z,7.47
2019-05-14T19:31:56.863Z,8.10
2019-05-14T19:34:28.831Z,8.00
2019-05-14T19:37:01.803Z,8.03
2019-05-14T19:39:34.255Z,10.35
2019-05-14T19:42:08.625Z,9.40
2019-05-14T19:44:40.541Z,8.10
2019-05-14T19:47:12.520Z,7.12
2019-05-14T19:49:44.548Z,7.42
2019-05-14T19:52:16.607Z,13.25
2019-05-14T19:54:49.028Z,10.93
2019-05-14T19:59:52.081Z,8.00
2019-05-14T20:02:23.842Z,7.28
2019-05-14T20:04:58.670Z,8.45
2019-05-14T20:07:29.393Z,7.78
2019-05-14T20:10:01.588Z,7.85
2019-05-14T20:12:33.409Z,9.70
2019-05-14T20:15:09.460Z,8.38
2019-05-14T20:17:40.773Z,8.08
2019-05-14T20:20:13.386Z,8.45
2019-05-14T20:22:45.264Z,7.75
2019-05-14T20:25:18.125Z,8.00
2019-05-14T20:27:49.919Z,7.87
2019-05-14T20:30:22.147Z,8.25
2019-05-14T20:32:54.087Z,8.43
2019-05-14T20:35:31.663Z,9.13
2019-05-14T20:37:59.175Z,8.80
2019-05-14T20:40:31.212Z,9.65
2019-05-14T20:43:03.243Z,8.85
2019-05-14T20:45:36.130Z,9.53
2019-05-14T20:48:08.947Z,9.18
2019-05-14T20:50:41.141Z,9.55
2019-05-14T20:53:13.251Z,9.70
2019-05-14T20:55:44.877Z,9.95
2019-05-14T20:58:19.920Z,9.20
2019-05-14T21:00:50.327Z,9.38
2019-05-14T21:03:22.117Z,9.88
2019-05-14T21:05:54.255Z,9.48
2019-05-14T21:08:28.230Z,9.53
2019-05-14T21:10:59.705Z,8.98
2019-05-14T21:13:31.463Z,8.85
2019-05-14T21:16:03.361Z,8.70
2019-05-14T21:18:35.618Z,9.25
2019-05-14T21:21:10.912Z,8.43
2019-05-14T21:23:41.401Z,9.60
2019-05-14T21:26:13.417Z,8.98
2019-05-14T21:28:45.075Z,9.78
2019-05-14T21:31:18.093Z,9.43
2019-05-14T21:33:49.745Z,9.88
2019-05-14T21:36:23.738Z,9.08
2019-05-14T21:38:55.294Z,9.28
2019-05-14T21:41:28.954Z,10.80
2019-05-14T21:44:01.382Z,10.32
2019-05-14T21:46:33.430Z,10.90
2019-05-14T21:49:05.205Z,10.80
2019-05-14T21:51:39.217Z,11.03
2019-05-14T21:54:11.166Z,10.30
2019-05-14T21:56:43.034Z,9.88
2019-05-14T21:59:14.633Z,9.43
2019-05-14T22:01:48.486Z,9.25
2019-05-14T22:04:20.242Z,9.80
2019-05-14T22:06:53.533Z,8.30
2019-05-14T22:09:25.604Z,9.25
2019-05-14T22:11:58.289Z,8.83
2019-05-14T22:14:29.935Z,8.93
2019-05-14T22:17:01.901Z,9.20
2019-05-14T22:19:33.901Z,9.33
2019-05-14T22:22:07.886Z,8.48
2019-05-14T22:24:39.121Z,9.28
2019-05-14T22:27:11.109Z,8.53
2019-05-14T22:29:42.830Z,9.78
2019-05-14T22:32:14.539Z,9.33
2019-05-14T22:34:49.095Z,9.98
2019-05-14T22:37:21.040Z,9.13
2019-05-14T22:39:52.935Z,9.60
2019-05-14T22:42:24.649Z,10.25
2019-05-14T22:44:58.334Z,9.10
2019-05-14T22:47:30.054Z,10.23
2019-05-14T22:50:02.265Z,9.80
2019-05-14T22:52:34.082Z,9.15
2019-05-14T22:55:07.391Z,9.18
2019-05-14T22:57:39.561Z,9.35
2019-05-14T23:02:43.574Z,7.87
2019-05-14T23:05:15.278Z,8.78
2019-05-14T23:07:48.533Z,9.13
2019-05-14T23:12:50.901Z,7.42
2019-05-14T23:15:23.642Z,7.92
2019-05-14T23:17:55.537Z,7.58
2019-05-14T23:20:28.970Z,7.83
2019-05-14T23:23:00.904Z,7.55
2019-05-14T23:25:33.708Z,7.83
2019-05-14T23:28:05.543Z,7.10
2019-05-14T23:30:38.779Z,6.75
2019-05-14T23:33:10.855Z,7.05
2019-05-14T23:35:42.992Z,7.00
2019-05-14T23:38:15.506Z,6.78
2019-05-14T23:43:18.625Z,7.42
2019-05-14T23:48:21.003Z,7.60
2019-05-14T23:50:53.179Z,7.17
2019-05-14T23:53:25.336Z,7.15
2019-05-14T23:55:57.058Z,8.25
2019-05-14T23:58:29.087Z,7.60
